• Join FlightAware (Why Join?)
  • Login
  • US Flag 
07:51AM EDT


 

Airport Tracker/Info


-or-


 

Live Flight TrackerFlight Track Log ✈ ASH3770 ✈ 17-May-2013 ✈ KPIT - KORD

Flight Track Log - Related Links

Times and Time Zones

All times are in EDT time to prevent confusion due to time zone crossing. See the ASH3770 flight status page for this flight to view local times or setup timezone preferences in your user account.

Time Position Orientation Groundspeed Altitude Reporting Facility
EDT Latitude Longitude Course Direction KTS MPH feet Rate Location/Type
06:44PM 40.5111 -80.3672 282° West 212 244 4,700  Level Cleveland Center
06:45PM 40.5342 -80.4683 287° West 270 311 6,800 2,460 Climbing Cleveland Center
06:46PM 40.5848 -80.7383 291° West  Level FlightAware Approximate
06:46PM 40.5528 -80.5667 284° West 292 336 9,700  Level Cleveland Center
06:47PM 40.6197 -80.8650 285° West  Level FlightAware Approximate
06:47PM 40.5758 -80.6569 289° West 287 330 12,800  Level Cleveland Center
06:48PM 40.6486 -80.9943 288° West  Level FlightAware Approximate
06:48PM 40.5964 -80.7553 285° West 287 330 15,300  Level Cleveland Center
06:49PM 40.6721 -81.1256 286° West  Level FlightAware Approximate
06:49PM 40.6192 -80.8622 286° West 287 330 17,600  Level Cleveland Center
06:50PM 40.6461 -80.9800 287° West 312 359 18,500 1,440 Climbing Cleveland Center
06:51PM 40.6744 -81.1225 285° West 351 404 20,500 1,860 Climbing Cleveland Center
06:52PM 40.7011 -81.2542 285° West 366 421 22,300 1,560 Climbing Cleveland Center
06:53PM 40.7314 -81.3886 287° West 377 434 23,700 1,440 Climbing Cleveland Center
06:54PM 40.7575 -81.5286 284° West 382 440 25,200 1,440 Climbing Cleveland Center
06:55PM 40.7853 -81.6689 285° West 393 452 26,600 1,200 Climbing Cleveland Center
06:56PM 40.8089 -81.8175 282° West 404 465 27,700 960 Climbing Cleveland Center
06:57PM 40.8344 -81.9469 285° West 411 473 28,600 960 Climbing Cleveland Center
06:58PM 40.8617 -82.0958 284° West 416 479 29,700 900 Climbing Cleveland Center
06:59PM 40.8867 -82.2503 282° West 416 479 30,500 840 Climbing Cleveland Center
07:00PM 40.9156 -82.4075 284° West 426 490 31,400 840 Climbing Cleveland Center
07:01PM 40.9444 -82.5597 284° West 432 497 32,200 900 Climbing Cleveland Center
07:02PM 40.9725 -82.7283 282° West 432 497 33,300 960 Climbing Cleveland Center
07:03PM 40.9986 -82.8803 283° West 432 497 34,200 840 Climbing Cleveland Center
07:04PM 41.0247 -83.0300 283° West 427 491 35,000 840 Climbing Cleveland Center
07:05PM 41.0511 -83.1658 284° West 427 491 35,900 480 Climbing Cleveland Center
07:06PM 41.0767 -83.3183 283° West 427 491 36,000  Climbing Cleveland Center
07:07PM 41.1017 -83.4875 281° West 427 491 36,000  Level Cleveland Center
07:08PM 41.1250 -83.6347 282° West 427 491 36,000  Level Cleveland Center
07:09PM 41.1583 -83.7853 286° West 422 486 36,000  Level Cleveland Center
07:10PM 41.2083 -83.9286 295° West 422 486 36,000  Level Cleveland Center
07:11PM 41.2564 -84.0719 294° West 422 486 36,000 -360 Level Cleveland Center
07:12PM 41.2736 -84.2164 279° West 425 489 35,300 -1,020 Descending Chicago Center
07:13PM 41.2583 -84.3753 263° West 431 496 34,000 -660 Descending Chicago Center
07:14PM 41.2439 -84.5314 263° West 426 490 34,000  Level Chicago Center
07:15PM 41.2353 -84.6839 266° West 416 479 34,000 -360 Level Chicago Center
07:17PM 41.2417 -84.8433 273° West 429 494 33,300 -1,800 Descending Chicago Center
07:18PM 41.2453 -84.9986 272° West 424 488 30,400 -2,400 Descending Chicago Center
07:19PM 41.2500 -85.1389 273° West 391 450 28,400 -2,580 Descending Chicago Center
07:20PM 41.2831 -85.2908 286° West 370 426 25,100 -2,160 Descending Chicago Center
07:21PM 41.3169 -85.4072 291° West 354 407 24,000 -1,920 Descending Chicago Center
07:22PM 41.3050 -85.5317 263° West 338 389 21,200 -3,000 Descending Chicago Center
07:23PM 41.2886 -85.6622 261° West 353 406 17,900 -2,580 Descending Chicago Center
07:24PM 41.2739 -85.7936 262° West 358 412 15,900 -960 Descending Chicago Center
07:25PM 41.2803 -85.9192 274° West 344 396 16,000  Climbing Chicago Center
07:26PM 41.3033 -86.0439 284° West 347 399 16,000  Level Chicago Center
07:27PM 41.3564 -86.1750 298° West 356 410 16,000 -900 Level Chicago Center
07:28PM 41.4542 -86.2111 345° North 369 425 14,200 -2,040 Descending Chicago Center
07:29PM 41.5558 -86.2469 345° North 375 432 11,900 -1,560 Descending Chicago Center
07:30PM 41.6547 -86.2806 346° North 371 427 11,000 -480 Descending Chicago Center
07:31PM 41.7525 -86.3133 346° North 364 419 11,000  Level Chicago Center
07:32PM 41.8233 -86.4072 315° West 360 414 11,000 -420 Level Chicago Center
07:33PM 41.8978 -86.5261 310° West 348 400 10,200 -540 Descending Chicago Center
07:34PM 41.9592 -86.6233 310° West 343 395 10,000 -120 Descending Chicago Center
07:35PM 42.0153 -86.7136 310° West 344 396 10,000  Level Chicago Center
07:36PM 42.0872 -86.8297 310° West 340 391 10,000 -720 Level Chicago Center
07:37PM 42.1381 -86.9122 310° West 298 343 8,600 -1,020 Descending Chicago Center
07:38PM 42.1594 -87.0122 286° West 288 331 8,000 -300 Descending Chicago Center
07:39PM 42.1644 -87.1128 274° West 275 316 8,000 -300 Level Chicago Center
07:40PM 42.1722 -87.2169 276° West 282 325 7,400 -540 Descending Chicago Center
07:41PM 42.1819 -87.3422 276° West 282 325 7,000 -240 Descending Chicago Center
07:42PM 42.1889 -87.4453 275° West 281 323 7,000  Level Chicago Center
07:43PM 42.1956 -87.5481 275° West 279 321 7,000  Level Chicago Center
07:44PM 42.1736 -87.6369 252° West 264 304 7,000  Level Chicago Center
07:45PM 42.1167 -87.7167 226° Southwest 269 310 7,000  Level Chicago TRACON
07:46PM 42.0667 -87.7667 217° Southwest 266 306 7,000  Level Chicago TRACON
07:47PM 42.0000 -87.8000 200° South 267 307 7,000  Level Chicago TRACON
07:48PM 41.9333 -87.8167 191° South 229 264 7,000 -300 Level Chicago TRACON
07:49PM 41.8833 -87.8500 206° Southwest 224 258 6,500 -1,020 Descending Chicago TRACON
07:50PM 41.8333 -87.9000 217° Southwest 225 259 5,000 -1,260 Descending Chicago TRACON
07:51PM 41.8181 -87.9142 215° Southwest 222 255 4,700 -900 Descending Chicago Center
07:52PM 41.8114 -87.9947 264° West 230 265 3,700 -1,020 Descending Chicago Center